createdAt,value
2022-09-09T00:01:06.325Z,98968.06
2022-09-09T00:03:46.444Z,98959.22
2022-09-09T00:06:31.645Z,98952.03
2022-09-09T00:09:08.115Z,98948.28
2022-09-09T00:11:49.046Z,98956.44
2022-09-09T00:14:29.685Z,98958.50
2022-09-09T00:17:03.193Z,98970.13
2022-09-09T00:19:43.977Z,98964.75
2022-09-09T00:22:18.782Z,98964.50
2022-09-09T00:24:54.896Z,98951.78
2022-09-09T00:27:39.083Z,98957.06
2022-09-09T00:30:21.585Z,98968.12
2022-09-09T00:32:59.342Z,98959.66
2022-09-09T00:35:33.885Z,98957.19
2022-09-09T00:38:12.275Z,98958.88
2022-09-09T00:41:14.536Z,98966.22
2022-09-09T00:43:42.707Z,98965.88
2022-09-09T00:46:48.987Z,98963.94
2022-09-09T00:49:25.474Z,98961.28
2022-09-09T00:51:56.717Z,98965.81
2022-09-09T00:54:33.885Z,98964.41
2022-09-09T00:57:14.435Z,98966.03
2022-09-09T01:00:18.477Z,98968.91
2022-09-09T01:02:54.727Z,98974.34
2022-09-09T01:05:25.735Z,98976.59
2022-09-09T01:07:58.394Z,98977.06
2022-09-09T01:10:50.434Z,98978.41
2022-09-09T01:13:36.905Z,98982.38
2022-09-09T01:16:07.154Z,98987.75
2022-09-09T01:18:44.535Z,98992.25
2022-09-09T01:21:45.855Z,98990.19
2022-09-09T01:24:21.206Z,98996.66
2022-09-09T01:26:56.263Z,98994.69
2022-09-09T01:29:24.644Z,98994.66
2022-09-09T01:32:04.514Z,99001.81
2022-09-09T01:34:40.235Z,99009.72
2022-09-09T01:37:13.704Z,99014.50
2022-09-09T01:39:44.594Z,99014.88
2022-09-09T01:42:15.337Z,99013.75
2022-09-09T01:44:43.549Z,99024.72
2022-09-09T01:47:11.536Z,99016.69
2022-09-09T01:49:41.295Z,99022.41
2022-09-09T01:52:10.057Z,99022.47
2022-09-09T01:54:38.155Z,99028.22
2022-09-09T01:57:25.885Z,99022.12
2022-09-09T02:00:13.124Z,99015.25
2022-09-09T02:02:57.073Z,99012.50
2022-09-09T02:05:35.685Z,99014.44
2022-09-09T02:08:10.165Z,99012.91
2022-09-09T02:10:44.826Z,99013.88
2022-09-09T02:13:15.984Z,99019.44
2022-09-09T02:15:49.084Z,99011.22
2022-09-09T02:18:19.483Z,99014.41
2022-09-09T02:20:47.974Z,99017.22
2022-09-09T02:23:16.436Z,99018.91
2022-09-09T02:25:45.524Z,99013.91
2022-09-09T02:28:15.924Z,99008.75
2022-09-09T02:30:44.602Z,99010.41
2022-09-09T02:33:14.114Z,99015.13
2022-09-09T02:35:43.355Z,99002.91
2022-09-09T02:38:13.874Z,99002.50
2022-09-09T02:40:43.196Z,99006.53
2022-09-09T02:43:10.994Z,99005.63
2022-09-09T02:45:49.966Z,99006.72
2022-09-09T02:48:52.807Z,98997.97
2022-09-09T02:51:53.714Z,99010.87
2022-09-09T02:54:34.525Z,99005.25
2022-09-09T02:57:14.286Z,99009.87
2022-09-09T02:59:42.707Z,99009.94
2022-09-09T03:02:12.495Z,99015.63
2022-09-09T03:04:44.295Z,99022.81
2022-09-09T03:07:13.257Z,99011.28
2022-09-09T03:09:43.231Z,99009.81
2022-09-09T03:12:12.356Z,99014.66
2022-09-09T03:14:40.817Z,99019.34
2022-09-09T03:17:10.325Z,99016.34
2022-09-09T03:19:38.786Z,99023.84
2022-09-09T03:22:07.181Z,99025.84
2022-09-09T03:24:35.574Z,99028.03
2022-09-09T03:27:04.495Z,99022.81
2022-09-09T03:29:32.775Z,99022.47
2022-09-09T03:32:01.360Z,99023.13
2022-09-09T03:34:29.215Z,99022.25
2022-09-09T03:36:58.866Z,99025.37
2022-09-09T03:39:26.914Z,99024.69
2022-09-09T03:41:54.836Z,99027.69
2022-09-09T03:44:23.266Z,99031.66
2022-09-09T03:46:50.946Z,99031.03
2022-09-09T03:49:19.196Z,99043.31
2022-09-09T03:51:48.035Z,99042.63
2022-09-09T03:54:15.679Z,99030.50
2022-09-09T03:56:43.375Z,99035.63
2022-09-09T03:59:12.135Z,99040.91
2022-09-09T04:01:41.162Z,99044.56
2022-09-09T04:04:10.154Z,99041.00
2022-09-09T04:06:38.034Z,99037.50
2022-09-09T04:09:05.935Z,99028.38
2022-09-09T04:11:35.108Z,99040.37
2022-09-09T04:14:03.031Z,99032.37
2022-09-09T04:16:30.995Z,99031.47
2022-09-09T04:18:59.967Z,99031.38
2022-09-09T04:21:27.858Z,99026.97
2022-09-09T04:23:55.976Z,99032.59
2022-09-09T04:26:24.358Z,99029.97
2022-09-09T04:28:52.055Z,99038.66
2022-09-09T04:31:24.115Z,99034.03
2022-09-09T04:33:52.495Z,99043.78
2022-09-09T04:36:20.882Z,99039.72
2022-09-09T04:38:50.371Z,99026.97
2022-09-09T04:41:18.648Z,99027.34
2022-09-09T04:43:46.674Z,99031.56
2022-09-09T04:46:14.728Z,99028.94
2022-09-09T04:48:42.854Z,99027.50
2022-09-09T04:51:14.195Z,99031.19
2022-09-09T04:53:42.656Z,99025.75
2022-09-09T04:56:12.774Z,99026.69
2022-09-09T04:58:44.169Z,99025.97
2022-09-09T05:01:18.663Z,99037.94
2022-09-09T05:03:47.038Z,99045.34
2022-09-09T05:06:18.342Z,99043.56
2022-09-09T05:08:47.097Z,99042.44
2022-09-09T05:11:18.079Z,99047.84
2022-09-09T05:13:46.606Z,99051.03
2022-09-09T05:16:15.682Z,99048.03
2022-09-09T05:18:44.606Z,99043.25
2022-09-09T05:21:13.844Z,99041.34
2022-09-09T05:23:42.205Z,99037.34
2022-09-09T05:26:17.756Z,99041.91
2022-09-09T05:28:47.465Z,99050.59
2022-09-09T05:31:17.378Z,99055.06
2022-09-09T05:33:47.143Z,99059.59
2022-09-09T05:36:17.770Z,99054.09
2022-09-09T05:38:46.911Z,99051.53
2022-09-09T05:41:17.549Z,99056.91
2022-09-09T05:43:46.566Z,99058.97
2022-09-09T05:46:17.718Z,99052.12
2022-09-09T05:48:48.537Z,99063.87
2022-09-09T05:51:19.627Z,99064.56
2022-09-09T05:53:49.016Z,99067.31
2022-09-09T05:56:19.321Z,99064.69
2022-09-09T05:58:51.245Z,99059.72
2022-09-09T06:01:23.626Z,99059.34
2022-09-09T06:03:53.187Z,99069.03
2022-09-09T06:06:25.290Z,99065.78
2022-09-09T06:08:58.521Z,99076.66
2022-09-09T06:11:32.188Z,99072.59
2022-09-09T06:14:01.483Z,99065.41
2022-09-09T06:16:30.671Z,99057.16
2022-09-09T06:18:59.117Z,99066.62
2022-09-09T06:21:28.257Z,99057.94
2022-09-09T06:24:00.710Z,99056.56
2022-09-09T06:26:31.988Z,99058.22
2022-09-09T06:29:04.845Z,99057.38
2022-09-09T06:31:35.674Z,99052.38
2022-09-09T06:34:09.019Z,99055.31
2022-09-09T06:36:40.056Z,99057.53
2022-09-09T06:39:14.841Z,99050.97
2022-09-09T06:41:43.944Z,99049.41
2022-09-09T06:44:14.715Z,99053.06
2022-09-09T06:46:42.795Z,99057.97
2022-09-09T06:49:11.473Z,99062.34
2022-09-09T06:51:45.866Z,99064.50
2022-09-09T06:54:14.907Z,99066.94
2022-09-09T06:56:44.342Z,99073.31
2022-09-09T06:59:13.314Z,99076.47
2022-09-09T07:01:45.042Z,99073.22
2022-09-09T07:04:14.869Z,99078.63
2022-09-09T07:06:45.416Z,99084.66
2022-09-09T07:09:16.231Z,99091.53
2022-09-09T07:11:50.087Z,99086.41
2022-09-09T07:14:19.896Z,99083.03
2022-09-09T07:16:48.386Z,99084.34
2022-09-09T07:19:16.894Z,99098.66
2022-09-09T07:21:45.349Z,99089.00
2022-09-09T07:24:14.166Z,99091.44
2022-09-09T07:26:42.662Z,99095.56
2022-09-09T07:29:10.690Z,99093.31
2022-09-09T07:31:41.165Z,99095.78
2022-09-09T07:34:09.989Z,99094.53
2022-09-09T07:36:40.371Z,99088.16
2022-09-09T07:39:10.863Z,99091.53
2022-09-09T07:41:45.075Z,99094.44
2022-09-09T07:44:16.291Z,99095.66
2022-09-09T07:46:46.505Z,99103.06
2022-09-09T07:49:16.414Z,99097.41
2022-09-09T07:51:47.601Z,99101.34
2022-09-09T07:54:18.608Z,99103.94
2022-09-09T07:56:47.877Z,99104.41
2022-09-09T07:59:15.755Z,99093.41
2022-09-09T08:01:46.723Z,99099.63
2022-09-09T08:04:18.329Z,99100.47
2022-09-09T08:06:53.157Z,99095.94
2022-09-09T08:09:22.396Z,99098.66
2022-09-09T08:11:50.417Z,99097.47
2022-09-09T08:14:19.107Z,99095.59
2022-09-09T08:16:50.439Z,99091.00
2022-09-09T08:19:18.921Z,99100.41
2022-09-09T08:21:47.374Z,99096.72
2022-09-09T08:24:16.374Z,99100.47
2022-09-09T08:26:50.415Z,99094.63
2022-09-09T08:29:19.737Z,99088.34
2022-09-09T08:31:56.405Z,99095.94
2022-09-09T08:34:27.386Z,99100.69
2022-09-09T08:36:55.630Z,99101.28
2022-09-09T08:39:24.447Z,99094.37
2022-09-09T08:42:04.193Z,99097.72
2022-09-09T08:44:35.400Z,99096.00
2022-09-09T08:47:48.370Z,99104.66
2022-09-09T08:50:34.608Z,99105.69
2022-09-09T08:53:08.488Z,99113.59
2022-09-09T08:55:37.164Z,99112.31
2022-09-09T08:58:15.762Z,99104.88
2022-09-09T09:00:47.404Z,99103.00
2022-09-09T09:04:05.283Z,99108.66
2022-09-09T09:06:37.369Z,99105.75
2022-09-09T09:09:28.814Z,99099.38
2022-09-09T09:12:01.967Z,99101.84
2022-09-09T09:14:35.445Z,99103.75
2022-09-09T09:17:08.415Z,99099.88
2022-09-09T09:19:40.594Z,99095.47
2022-09-09T09:22:12.153Z,99099.78
2022-09-09T09:24:47.575Z,99089.94
2022-09-09T09:27:20.027Z,99076.78
2022-09-09T09:30:20.300Z,99080.88
2022-09-09T09:32:40.686Z,99073.66
2022-09-09T09:35:13.959Z,99073.19
2022-09-09T09:40:35.363Z,99075.47
2022-09-09T09:43:09.001Z,99082.78
2022-09-09T09:46:06.820Z,99083.91
2022-09-09T09:48:37.746Z,99085.78
2022-09-09T09:51:11.792Z,99087.56
2022-09-09T09:53:40.478Z,99087.56
2022-09-09T09:56:16.244Z,99093.78
2022-09-09T09:58:51.292Z,99088.25
2022-09-09T10:01:29.053Z,99089.41
2022-09-09T10:04:01.925Z,99082.78
2022-09-09T10:06:39.266Z,99082.19
2022-09-09T10:09:27.444Z,99076.53
2022-09-09T10:12:17.958Z,99081.53
2022-09-09T10:14:46.737Z,99079.56
2022-09-09T10:17:44.003Z,99071.09
2022-09-09T10:20:24.579Z,99069.66
2022-09-09T10:22:53.736Z,99073.16
2022-09-09T10:25:38.013Z,99078.47
2022-09-09T10:28:27.909Z,99085.50
2022-09-09T10:31:10.724Z,99079.16
2022-09-09T10:33:49.137Z,99086.87
2022-09-09T10:36:25.759Z,99080.91
2022-09-09T10:39:04.676Z,99082.09
2022-09-09T10:41:41.709Z,99078.97
2022-09-09T10:44:31.048Z,99084.13
2022-09-09T10:47:29.709Z,99078.59
2022-09-09T10:50:13.701Z,99085.28
2022-09-09T10:52:52.205Z,99074.78
2022-09-09T10:55:23.837Z,99068.59
2022-09-09T10:58:00.115Z,99068.97
